createdAt,value
2023-03-05T00:01:50.081Z,2.02
2023-03-05T00:04:58.014Z,1.99
2023-03-05T00:08:12.743Z,1.98
2023-03-05T00:11:25.727Z,1.97
2023-03-05T00:14:33.425Z,1.97
2023-03-05T00:17:45.478Z,1.93
2023-03-05T00:20:57.853Z,1.95
2023-03-05T00:24:13.394Z,1.96
2023-03-05T00:27:25.276Z,1.95
2023-03-05T00:30:38.440Z,1.95
2023-03-05T00:33:50.701Z,1.96
2023-03-05T00:37:02.645Z,1.93
2023-03-05T00:40:18.280Z,1.85
2023-03-05T00:43:30.402Z,1.84
2023-03-05T00:46:44.768Z,1.86
2023-03-05T00:49:56.950Z,1.84
2023-03-05T00:53:09.070Z,1.80
2023-03-05T00:56:21.732Z,1.70
2023-03-05T00:59:33.877Z,1.69
2023-03-05T01:02:46.312Z,1.71
2023-03-05T01:05:58.547Z,1.66
2023-03-05T01:09:10.735Z,1.63
2023-03-05T01:12:22.647Z,1.71
2023-03-05T01:15:34.995Z,1.70
2023-03-05T01:18:47.433Z,1.72
2023-03-05T01:21:59.378Z,1.73
2023-03-05T01:28:19.891Z,1.78
2023-03-05T01:31:32.766Z,1.78
2023-03-05T01:34:46.034Z,1.75
2023-03-05T01:37:58.965Z,1.68
2023-03-05T01:41:11.194Z,1.66
2023-03-05T01:44:33.427Z,1.69
2023-03-05T01:47:45.916Z,1.64
2023-03-05T01:50:58.060Z,1.63
2023-03-05T01:54:13.356Z,1.60
2023-03-05T01:57:30.379Z,1.51
2023-03-05T02:00:47.587Z,1.50
2023-03-05T02:03:59.866Z,1.45
2023-03-05T02:07:13.456Z,1.39
2023-03-05T02:10:29.970Z,1.33
2023-03-05T02:13:38.943Z,1.30
2023-03-05T02:16:51.353Z,1.24
2023-03-05T02:20:09.904Z,1.26
2023-03-05T02:23:24.384Z,1.26
2023-03-05T02:26:36.708Z,1.31
2023-03-05T02:29:52.119Z,1.35
2023-03-05T02:33:04.579Z,1.37
2023-03-05T02:36:17.406Z,1.21
2023-03-05T02:39:29.538Z,1.18
2023-03-05T02:42:41.645Z,1.17
2023-03-05T02:45:55.603Z,1.16
2023-03-05T02:49:07.635Z,1.19
2023-03-05T02:52:19.619Z,1.21
2023-03-05T02:55:32.192Z,1.23
2023-03-05T02:58:44.844Z,1.25
2023-03-05T03:01:57.315Z,1.26
2023-03-05T03:05:10.367Z,1.22
2023-03-05T03:08:22.350Z,1.20
2023-03-05T03:11:34.649Z,1.22
2023-03-05T03:14:48.096Z,1.21
2023-03-05T03:18:00.670Z,1.19
2023-03-05T03:21:13.310Z,1.15
2023-03-05T03:24:25.438Z,1.16
2023-03-05T03:27:37.509Z,1.17
2023-03-05T03:30:49.689Z,1.18
2023-03-05T03:34:01.824Z,1.17
2023-03-05T03:37:14.810Z,1.19
2023-03-05T03:40:27.365Z,1.18
2023-03-05T03:43:39.584Z,1.20
2023-03-05T03:46:54.257Z,1.18
2023-03-05T03:50:06.488Z,1.21
2023-03-05T03:53:19.074Z,1.19
2023-03-05T03:56:31.312Z,1.14
2023-03-05T03:59:45.294Z,1.08
2023-03-05T04:02:57.321Z,1.01
2023-03-05T04:06:09.835Z,0.94
2023-03-05T04:09:21.838Z,0.87
2023-03-05T04:12:33.885Z,0.84
2023-03-05T04:15:46.377Z,0.82
2023-03-05T04:18:58.580Z,0.81
2023-03-05T04:22:10.846Z,0.77
2023-03-05T04:25:18.789Z,0.77
2023-03-05T04:28:33.250Z,0.76
2023-03-05T04:31:45.176Z,0.69
2023-03-05T04:34:57.458Z,0.73
2023-03-05T04:38:10.054Z,0.73
2023-03-05T04:41:22.055Z,0.74
2023-03-05T04:44:34.001Z,0.72
2023-03-05T04:47:46.220Z,0.71
2023-03-05T04:50:58.207Z,0.72
2023-03-05T04:54:10.418Z,0.73
2023-03-05T04:57:23.830Z,0.66
2023-03-05T05:00:36.185Z,0.66
2023-03-05T05:03:48.362Z,0.62
2023-03-05T05:07:02.832Z,0.60
2023-03-05T05:13:24.550Z,0.53
2023-03-05T05:16:36.591Z,0.52
2023-03-05T05:19:48.972Z,0.49
2023-03-05T05:23:00.946Z,0.45
2023-03-05T05:26:14.854Z,0.40
2023-03-05T05:29:26.987Z,0.35
2023-03-05T05:32:39.183Z,0.38
2023-03-05T05:35:52.837Z,0.24
2023-03-05T05:39:00.796Z,0.31
2023-03-05T05:42:13.810Z,0.30
2023-03-05T05:45:26.037Z,0.30
2023-03-05T05:48:40.177Z,0.19
2023-03-05T05:51:47.933Z,0.22
2023-03-05T05:55:00.099Z,0.26
2023-03-05T05:58:12.499Z,0.27
2023-03-05T06:01:29.002Z,0.29
2023-03-05T06:04:42.035Z,0.35
2023-03-05T06:07:54.125Z,0.39
2023-03-05T06:11:06.208Z,0.41
2023-03-05T06:14:19.550Z,0.41
2023-03-05T06:17:32.501Z,0.43
2023-03-05T06:20:40.216Z,0.45
2023-03-05T06:23:53.897Z,0.50
2023-03-05T06:27:01.684Z,0.52
2023-03-05T06:30:17.627Z,0.53
2023-03-05T06:33:29.699Z,0.53
2023-03-05T06:36:43.730Z,0.55
2023-03-05T06:39:56.038Z,0.53
2023-03-05T06:43:08.044Z,0.51
2023-03-05T06:46:22.919Z,0.47
2023-03-05T06:49:35.057Z,0.46
2023-03-05T06:52:47.024Z,0.46
2023-03-05T06:55:59.116Z,0.47
2023-03-05T06:59:11.898Z,0.42
2023-03-05T07:02:19.689Z,0.43
2023-03-05T07:11:32.928Z,0.47
2023-03-05T07:14:45.251Z,0.47
2023-03-05T07:17:52.893Z,0.55
2023-03-05T07:21:09.601Z,0.34
2023-03-05T07:24:21.671Z,0.41
2023-03-05T07:27:33.574Z,0.39
2023-03-05T07:42:56.153Z,0.49
2023-03-05T07:46:15.952Z,0.49
2023-03-05T07:49:28.428Z,0.35
2023-03-05T07:52:41.077Z,0.64
2023-03-05T07:55:54.131Z,0.70
2023-03-05T08:28:20.738Z,1.05
2023-03-05T08:31:35.023Z,1.09
2023-03-05T08:34:47.666Z,1.09
2023-03-05T08:42:30.585Z,1.40
2023-03-05T08:51:43.987Z,1.45
2023-03-05T08:57:56.249Z,1.61
2023-03-05T09:01:22.650Z,1.74
2023-03-05T09:13:35.141Z,2.02
2023-03-05T09:19:47.366Z,2.15
2023-03-05T09:22:59.668Z,2.22
2023-03-05T09:32:16.597Z,2.38
2023-03-05T09:35:32.806Z,2.52
2023-03-05T09:45:43.402Z,2.80
2023-03-05T09:50:21.470Z,2.53
2023-03-05T09:53:57.929Z,2.64
2023-03-05T09:57:18.617Z,2.63
2023-03-05T10:00:46.149Z,2.49
2023-03-05T10:04:07.274Z,2.71
2023-03-05T10:07:31.475Z,2.82
2023-03-05T10:10:44.565Z,2.93
2023-03-05T10:13:52.842Z,2.82
2023-03-05T10:20:32.445Z,2.92
2023-03-05T10:24:16.076Z,2.92
2023-03-05T10:30:51.315Z,3.18
2023-03-05T10:34:12.909Z,3.25
2023-03-05T10:38:09.687Z,3.24
2023-03-05T10:41:32.208Z,3.45
2023-03-05T10:47:52.269Z,3.59
2023-03-05T10:51:12.248Z,3.53
2023-03-05T10:54:30.808Z,3.42
2023-03-05T11:01:29.614Z,3.27
2023-03-05T11:04:51.145Z,3.20
2023-03-05T11:22:24.836Z,2.66
2023-03-05T11:26:03.455Z,2.47
2023-03-05T11:29:26.088Z,2.32
2023-03-05T11:38:38.463Z,2.22
2023-03-05T11:41:56.828Z,2.19
2023-03-05T11:45:11.410Z,2.12
2023-03-05T11:48:33.508Z,2.01
2023-03-05T11:52:08.284Z,2.02
2023-03-05T11:55:25.182Z,1.98
2023-03-05T11:58:43.449Z,2.02
2023-03-05T12:01:59.801Z,2.03
2023-03-05T12:14:22.067Z,1.86
2023-03-05T12:17:39.850Z,1.81
2023-03-05T12:20:58.579Z,1.75
2023-03-05T12:35:04.484Z,1.63
2023-03-05T12:44:30.040Z,1.67
2023-03-05T12:47:42.224Z,1.82
2023-03-05T12:51:03.946Z,1.94
2023-03-05T12:54:39.720Z,2.07
2023-03-05T12:57:54.647Z,2.10
2023-03-05T13:01:14.943Z,2.14
2023-03-05T13:04:31.500Z,2.20
2023-03-05T13:07:43.481Z,2.08
2023-03-05T13:11:02.346Z,2.01
2023-03-05T13:14:32.513Z,2.14
2023-03-05T13:17:48.476Z,2.01
2023-03-05T13:21:11.720Z,2.03
2023-03-05T13:24:25.764Z,1.96
2023-03-05T13:27:39.192Z,1.91
2023-03-05T13:30:59.280Z,1.87
2023-03-05T13:34:20.377Z,1.83
2023-03-05T13:37:36.303Z,1.79
2023-03-05T13:40:48.458Z,1.74
2023-03-05T13:44:05.119Z,1.83
2023-03-05T13:47:24.652Z,1.86
2023-03-05T13:50:39.026Z,1.81
2023-03-05T13:53:51.765Z,1.89
2023-03-05T13:57:07.045Z,1.84
2023-03-05T14:00:35.593Z,1.92
2023-03-05T14:03:47.933Z,2.07
2023-03-05T14:07:06.195Z,2.30
2023-03-05T14:10:38.340Z,2.54
2023-03-05T14:13:52.000Z,2.56
2023-03-05T14:17:33.942Z,2.49
2023-03-05T14:20:49.163Z,2.55
2023-03-05T14:24:01.590Z,2.49
2023-03-05T14:27:20.058Z,2.53
2023-03-05T14:30:35.267Z,2.44
2023-03-05T14:33:48.149Z,2.47
2023-03-05T14:37:03.285Z,2.57
2023-03-05T14:40:28.018Z,2.54
2023-03-05T14:43:39.965Z,2.53
2023-03-05T14:46:55.876Z,2.51
2023-03-05T14:50:08.283Z,2.46
2023-03-05T14:53:26.213Z,2.45
2023-03-05T14:56:39.262Z,2.45
2023-03-05T14:59:51.688Z,2.32
2023-03-05T15:03:04.030Z,2.33
2023-03-05T15:06:25.712Z,2.26
2023-03-05T15:09:37.908Z,2.30
2023-03-05T15:12:50.548Z,2.32
2023-03-05T15:16:03.181Z,2.37
2023-03-05T15:19:18.543Z,2.32
2023-03-05T15:22:30.502Z,2.34
2023-03-05T15:25:42.509Z,2.30
2023-03-05T15:28:54.575Z,2.28
2023-03-05T15:32:06.791Z,2.31
2023-03-05T15:35:19.193Z,2.32
2023-03-05T15:38:31.615Z,2.31
2023-03-05T15:41:43.612Z,2.31
2023-03-05T15:44:55.552Z,2.32
2023-03-05T15:48:07.931Z,2.32
2023-03-05T15:51:20.183Z,2.29
2023-03-05T15:54:32.460Z,2.24
2023-03-05T15:57:48.791Z,2.23
2023-03-05T16:01:00.800Z,2.25
2023-03-05T16:04:13.429Z,2.29
2023-03-05T16:07:25.647Z,2.26
2023-03-05T16:10:39.764Z,2.25
2023-03-05T16:13:51.905Z,2.24
2023-03-05T16:17:07.396Z,2.20
2023-03-05T16:20:22.367Z,2.22
2023-03-05T16:23:34.336Z,2.20
2023-03-05T16:26:48.222Z,2.20
2023-03-05T16:30:00.409Z,2.13
2023-03-05T16:33:12.634Z,2.14
2023-03-05T16:36:35.686Z,2.12
2023-03-05T16:39:47.793Z,2.15
2023-03-05T16:42:59.857Z,2.13
2023-03-05T16:46:12.236Z,2.11
2023-03-05T16:49:25.441Z,2.09
2023-03-05T16:52:37.829Z,2.08
2023-03-05T16:55:49.899Z,2.07
2023-03-05T16:59:04.363Z,2.05
2023-03-05T17:02:17.248Z,2.03
2023-03-05T17:05:30.037Z,2.04
2023-03-05T17:08:42.615Z,2.06
2023-03-05T17:11:55.094Z,2.01
2023-03-05T17:15:07.156Z,1.94
2023-03-05T17:18:19.307Z,1.95
2023-03-05T17:21:31.447Z,1.96
2023-03-05T17:24:44.126Z,1.96
2023-03-05T17:27:56.421Z,1.95
2023-03-05T17:31:08.686Z,1.93
2023-03-05T17:34:33.252Z,1.92
2023-03-05T17:37:36.230Z,1.88
2023-03-05T17:40:48.588Z,1.83
2023-03-05T17:44:00.835Z,1.78
2023-03-05T17:47:13.759Z,1.73
2023-03-05T17:50:27.037Z,1.66
2023-03-05T17:53:40.442Z,1.65
2023-03-05T17:56:54.104Z,1.55
2023-03-05T18:00:07.643Z,1.47
2023-03-05T18:03:22.177Z,1.41
2023-03-05T18:06:35.893Z,1.37
2023-03-05T18:09:48.472Z,1.24
2023-03-05T18:13:01.011Z,1.09
2023-03-05T18:16:16.175Z,1.14
2023-03-05T18:19:28.671Z,1.18
2023-03-05T18:22:41.162Z,1.19
2023-03-05T18:25:53.622Z,1.17
2023-03-05T18:29:05.861Z,1.21
2023-03-05T18:32:18.085Z,1.23
2023-03-05T18:35:31.287Z,1.20
2023-03-05T18:38:43.654Z,1.23
2023-03-05T18:41:56.597Z,1.24
2023-03-05T18:45:10.412Z,1.22
2023-03-05T18:48:22.624Z,1.20
2023-03-05T18:51:36.256Z,1.17
2023-03-05T18:54:48.368Z,1.19
2023-03-05T18:58:01.183Z,1.12
2023-03-05T19:01:14.697Z,1.10
2023-03-05T19:04:27.685Z,1.09
2023-03-05T19:07:40.479Z,1.05
2023-03-05T19:10:53.193Z,1.04
2023-03-05T19:14:07.230Z,1.03
2023-03-05T19:17:19.707Z,1.05
2023-03-05T19:20:31.891Z,1.01
2023-03-05T19:23:44.280Z,1.00
2023-03-05T19:26:58.217Z,0.97
2023-03-05T19:30:13.863Z,0.94
2023-03-05T19:33:25.930Z,0.95
2023-03-05T19:36:39.195Z,0.94
2023-03-05T19:39:51.549Z,0.90
2023-03-05T19:43:05.720Z,0.91
2023-03-05T19:46:18.061Z,0.87
2023-03-05T19:49:31.253Z,0.92
2023-03-05T19:52:43.494Z,0.91
2023-03-05T19:55:55.871Z,0.93
2023-03-05T19:59:08.273Z,0.93
2023-03-05T20:02:22.036Z,0.94
2023-03-05T20:05:35.268Z,0.98
2023-03-05T20:08:48.591Z,0.98
2023-03-05T20:12:03.348Z,1.02
2023-03-05T20:15:16.821Z,1.02
2023-03-05T20:18:29.370Z,0.94
2023-03-05T20:21:45.791Z,0.88
2023-03-05T20:24:58.165Z,0.89
2023-03-05T20:28:10.530Z,0.87
2023-03-05T20:31:26.961Z,0.72
2023-03-05T20:34:39.244Z,0.70
2023-03-05T20:37:55.675Z,0.67
2023-03-05T20:41:11.022Z,0.68
2023-03-05T20:44:23.834Z,0.67
2023-03-05T20:47:38.605Z,0.64
2023-03-05T20:50:51.049Z,0.54
2023-03-05T20:54:06.322Z,0.56
2023-03-05T20:57:18.792Z,0.54
2023-03-05T21:00:32.294Z,0.56
2023-03-05T21:03:44.723Z,0.57
2023-03-05T21:06:59.945Z,0.57
2023-03-05T21:10:16.655Z,0.50
2023-03-05T21:13:31.111Z,0.50
2023-03-05T21:16:43.377Z,0.42
2023-03-05T21:19:56.119Z,0.34
2023-03-05T21:23:08.316Z,0.21
2023-03-05T21:26:21.060Z,0.19
2023-03-05T21:29:33.565Z,0.25
2023-03-05T21:32:45.803Z,0.14
2023-03-05T21:35:59.316Z,0.11
2023-03-05T21:39:11.740Z,0.11
2023-03-05T21:42:24.023Z,0.19
2023-03-05T21:45:37.453Z,0.15
2023-03-05T21:48:49.608Z,0.16
2023-03-05T21:52:05.905Z,0.19
2023-03-05T21:55:22.646Z,0.18
2023-03-05T21:58:35.370Z,0.22
2023-03-05T22:01:47.506Z,0.27
2023-03-05T22:04:59.729Z,0.29
2023-03-05T22:08:12.543Z,0.31
2023-03-05T22:11:25.415Z,0.17
2023-03-05T22:14:37.577Z,0.11
2023-03-05T22:17:49.884Z,0.17
2023-03-05T22:21:03.521Z,0.14
2023-03-05T22:24:16.716Z,0.14
2023-03-05T22:27:29.056Z,0.11
2023-03-05T22:30:41.459Z,0.13
2023-03-05T22:33:53.793Z,0.14
2023-03-05T22:37:05.775Z,0.19
2023-03-05T22:40:23.273Z,0.24
2023-03-05T22:43:35.211Z,0.27
2023-03-05T22:46:47.416Z,0.30
2023-03-05T22:49:59.937Z,0.26
2023-03-05T22:53:12.624Z,0.27
2023-03-05T22:56:26.291Z,0.26
2023-03-05T22:59:38.689Z,0.28
2023-03-05T23:02:51.623Z,0.27
2023-03-05T23:06:03.585Z,0.34
2023-03-05T23:09:15.847Z,0.26
2023-03-05T23:12:30.709Z,0.30
2023-03-05T23:15:44.808Z,0.27
2023-03-05T23:18:57.082Z,0.26
2023-03-05T23:22:11.214Z,0.26
2023-03-05T23:25:24.760Z,0.14
2023-03-05T23:28:36.872Z,0.12
2023-03-05T23:31:48.860Z,0.22
2023-03-05T23:35:02.714Z,0.17
2023-03-05T23:38:17.900Z,0.09
2023-03-05T23:41:29.880Z,0.08
2023-03-05T23:44:42.095Z,0.16
2023-03-05T23:47:55.313Z,0.19
2023-03-05T23:51:09.471Z,0.18
2023-03-05T23:54:21.566Z,0.17
2023-03-05T23:57:35.122Z,0.19
